Time;durP1;ratioP1;P1;durP2;ratioP2;P2;SDS_P1;SDS_P2;PMS_P1;PMS_P2;Temp;Humidity;BMP_temperature;BMP_pressure;BME280_temperature;BME280_humidity;BME280_pressure;Samples;Min_cycle;Max_cycle;Signal;HPM_P1;HPM_P2
2022/10/18 00:01:48;;;;;;;25.70;14.32;;;11.80;99.90;;;;;;5048987;28;20043;-53
2022/10/18 00:04:13;;;;;;;23.30;13.73;;;11.70;99.90;;;;;;5048657;28;20025;-52
2022/10/18 00:06:39;;;;;;;25.40;13.13;;;11.60;99.90;;;;;;5049049;28;20036;-52
2022/10/18 00:09:04;;;;;;;23.70;13.40;;;11.60;99.90;;;;;;5048951;28;20025;-52
2022/10/18 00:11:30;;;;;;;21.60;12.07;;;11.40;99.90;;;;;;5048996;28;20484;-51
2022/10/18 00:13:56;;;;;;;24.02;13.63;;;11.30;99.90;;;;;;5048574;28;20045;-51
2022/10/18 00:16:22;;;;;;;30.95;13.52;;;11.30;99.90;;;;;;5048819;28;20113;-52
2022/10/18 00:18:48;;;;;;;28.15;13.15;;;11.20;99.90;;;;;;5048771;28;20100;-53
2022/10/18 00:21:19;;;;;;;22.92;14.07;;;11.10;99.90;;;;;;5030746;28;20035;-54
2022/10/18 00:23:46;;;;;;;26.45;13.77;;;11.00;99.90;;;;;;5047981;28;20043;-52
2022/10/18 00:26:16;;;;;;;27.02;12.27;;;10.90;99.90;;;;;;5048352;28;20029;-54
2022/10/18 00:28:43;;;;;;;22.23;13.10;;;11.00;99.90;;;;;;5048579;28;20515;-51
2022/10/18 00:31:11;;;;;;;23.85;13.70;;;10.90;99.90;;;;;;5048624;28;20032;-52
2022/10/18 00:33:37;;;;;;;27.83;15.30;;;10.80;99.90;;;;;;5048604;28;20029;-53
2022/10/18 00:36:03;;;;;;;26.60;15.70;;;10.80;99.90;;;;;;5030895;28;20787;-51
2022/10/18 00:38:28;;;;;;;22.85;14.15;;;10.70;99.90;;;;;;5030846;28;20531;-51
2022/10/18 00:40:54;;;;;;;35.25;18.33;;;10.70;99.90;;;;;;5048618;28;20070;-52
2022/10/18 00:43:19;;;;;;;26.38;15.30;;;10.70;99.90;;;;;;5048425;28;20465;-52
2022/10/18 00:45:45;;;;;;;21.70;13.10;;;10.70;99.90;;;;;;5048284;28;20048;-51
2022/10/18 00:48:14;;;;;;;21.13;12.43;;;10.70;99.90;;;;;;5048611;28;20029;-51
2022/10/18 00:50:41;;;;;;;22.95;13.70;;;10.80;99.90;;;;;;5048543;28;20029;-51
2022/10/18 00:53:11;;;;;;;23.13;12.18;;;10.90;99.90;;;;;;5048420;28;20037;-52
2022/10/18 00:55:38;;;;;;;20.20;12.20;;;10.80;99.90;;;;;;5048486;28;20715;-52
2022/10/18 00:58:05;;;;;;;23.55;13.57;;;10.80;99.90;;;;;;5048443;28;20065;-52
2022/10/18 01:00:31;;;;;;;25.00;14.32;;;10.80;99.90;;;;;;5048749;28;20090;-51
2022/10/18 01:02:58;;;;;;;23.75;13.25;;;10.70;99.90;;;;;;5048367;28;20017;-52
2022/10/18 01:05:25;;;;;;;30.90;15.30;;;10.60;99.90;;;;;;5047988;28;20033;-51
2022/10/18 01:08:02;;;;;;;25.90;14.75;;;10.60;99.90;;;;;;5048608;28;20025;-51
2022/10/18 01:10:43;;;;;;;29.33;15.50;;;10.60;99.90;;;;;;5048287;28;20033;-53
2022/10/18 01:14:03;;;;;;;26.00;13.30;;;10.60;99.90;;;;;;5048341;28;20072;-54
2022/10/18 01:16:42;;;;;;;31.50;16.15;;;10.50;99.90;;;;;;4990446;28;20030;-50
2022/10/18 01:19:25;;;;;;;31.13;16.40;;;10.40;99.90;;;;;;5045010;28;20043;-51
2022/10/18 01:22:22;;;;;;;31.70;16.70;;;10.50;99.90;;;;;;5034268;28;20376;-51
2022/10/18 01:24:50;;;;;;;29.70;16.73;;;10.50;99.90;;;;;;5052204;28;20028;-52
2022/10/18 01:27:31;;;;;;;26.02;15.55;;;10.60;99.90;;;;;;5052019;28;20063;-52
2022/10/18 01:30:30;;;;;;;28.35;14.32;;;10.40;99.90;;;;;;5052044;28;20025;-52
2022/10/18 01:33:31;;;;;;;29.45;15.02;;;10.40;99.90;;;;;;5052074;28;20066;-53
2022/10/18 01:36:13;;;;;;;41.78;17.52;;;10.40;99.90;;;;;;5044242;28;20530;-53
2022/10/18 01:38:41;;;;;;;23.77;14.05;;;10.30;99.90;;;;;;5051735;28;20048;-52
2022/10/18 01:41:10;;;;;;;26.60;14.45;;;10.20;99.90;;;;;;5048184;28;20021;-52
2022/10/18 01:43:37;;;;;;;26.08;13.32;;;10.30;99.90;;;;;;5041832;28;20045;-51
2022/10/18 01:46:04;;;;;;;26.88;13.70;;;10.30;99.90;;;;;;5050928;28;20055;-53
2022/10/18 01:48:30;;;;;;;23.50;13.13;;;10.30;99.90;;;;;;5051408;28;20083;-52
2022/10/18 01:50:56;;;;;;;21.55;12.77;;;10.20;99.90;;;;;;5051568;28;20045;-51
2022/10/18 01:53:25;;;;;;;27.65;14.77;;;10.20;99.90;;;;;;5051202;28;20041;-52
2022/10/18 01:56:19;;;;;;;32.47;13.95;;;10.20;99.90;;;;;;5051376;28;20027;-53
2022/10/18 01:59:06;;;;;;;26.17;14.35;;;10.20;99.90;;;;;;5042798;28;20036;-52
2022/10/18 02:01:44;;;;;;;26.35;15.07;;;10.10;99.90;;;;;;5051611;28;20068;-52
2022/10/18 02:04:28;;;;;;;26.77;16.05;;;9.80;99.90;;;;;;5051046;28;20114;-52
2022/10/18 02:07:03;;;;;;;32.15;15.18;;;9.70;99.90;;;;;;5051151;28;20404;-53
2022/10/18 02:10:05;;;;;;;25.75;13.73;;;9.70;99.90;;;;;;5051241;28;20171;-53
2022/10/18 02:12:32;;;;;;;21.88;13.68;;;9.70;99.90;;;;;;5050879;28;20025;-51
2022/10/18 02:15:00;;;;;;;25.88;14.63;;;9.70;99.90;;;;;;5051180;28;20641;-51
2022/10/18 02:17:28;;;;;;;30.05;14.95;;;9.80;99.90;;;;;;5050739;28;20036;-52
2022/10/18 02:19:55;;;;;;;32.72;16.70;;;9.80;99.90;;;;;;5050837;28;20036;-52
2022/10/18 02:22:25;;;;;;;29.35;15.27;;;9.80;99.90;;;;;;5050788;28;20021;-52
2022/10/18 02:24:54;;;;;;;31.48;16.42;;;9.70;99.90;;;;;;5049924;28;20064;-53
2022/10/18 02:27:21;;;;;;;35.17;17.02;;;9.70;99.90;;;;;;5050094;28;20082;-52
2022/10/18 02:29:47;;;;;;;46.13;21.95;;;9.60;99.90;;;;;;5042721;28;20130;-51
2022/10/18 02:32:25;;;;;;;44.30;20.10;;;9.70;99.90;;;;;;5045679;28;20032;-52
2022/10/18 02:35:05;;;;;;;37.35;17.85;;;9.80;99.90;;;;;;5031524;28;20439;-52
2022/10/18 02:37:35;;;;;;;35.15;18.13;;;9.80;99.90;;;;;;5050083;28;20035;-52
2022/10/18 02:40:04;;;;;;;36.70;17.42;;;9.80;99.90;;;;;;5049901;28;20029;-53
2022/10/18 02:42:38;;;;;;;34.90;18.17;;;9.70;99.90;;;;;;5042401;28;20369;-54
2022/10/18 02:45:05;;;;;;;53.70;23.58;;;9.70;99.90;;;;;;5041483;28;20208;-51
2022/10/18 02:47:31;;;;;;;58.28;26.70;;;9.70;99.90;;;;;;5045439;28;20043;-52
2022/10/18 02:49:57;;;;;;;104.28;43.65;;;9.70;99.90;;;;;;5050226;28;20392;-51
2022/10/18 02:52:22;;;;;;;111.65;49.97;;;9.60;99.90;;;;;;5050118;28;20043;-53
2022/10/18 02:54:48;;;;;;;102.18;46.67;;;9.50;99.90;;;;;;5050013;28;20025;-52
2022/10/18 02:57:14;;;;;;;110.22;46.67;;;9.50;99.90;;;;;;5050036;28;20072;-53
2022/10/18 02:59:39;;;;;;;91.07;41.28;;;9.40;99.90;;;;;;5050154;28;20063;-50
2022/10/18 03:02:05;;;;;;;97.78;38.28;;;9.40;99.90;;;;;;5032205;28;20443;-53
2022/10/18 03:04:31;;;;;;;76.20;33.13;;;9.40;99.90;;;;;;5031971;28;20034;-53
2022/10/18 03:06:56;;;;;;;71.68;32.92;;;9.30;99.90;;;;;;5049743;28;20021;-53
2022/10/18 03:09:22;;;;;;;76.65;34.75;;;9.30;99.90;;;;;;5049793;28;20037;-51
2022/10/18 03:11:48;;;;;;;45.60;23.23;;;9.40;99.90;;;;;;5049790;28;20027;-52
2022/10/18 03:14:13;;;;;;;49.90;25.60;;;9.30;99.90;;;;;;5049989;28;20129;-53
2022/10/18 03:16:39;;;;;;;44.88;21.67;;;9.30;99.90;;;;;;5050177;28;20029;-53
2022/10/18 03:19:05;;;;;;;47.47;23.38;;;9.30;99.90;;;;;;5050048;28;20053;-53
2022/10/18 03:21:30;;;;;;;48.50;24.90;;;9.40;99.90;;;;;;5049535;28;20032;-52
2022/10/18 03:23:57;;;;;;;51.90;23.27;;;9.30;99.90;;;;;;5049597;28;20025;-53
2022/10/18 03:26:23;;;;;;;49.78;25.25;;;9.30;99.90;;;;;;5050081;28;20078;-52
2022/10/18 03:28:48;;;;;;;50.28;26.80;;;9.30;99.90;;;;;;5049775;28;20107;-52
2022/10/18 03:31:14;;;;;;;51.67;26.25;;;9.20;99.90;;;;;;5049922;28;20063;-53
2022/10/18 03:33:40;;;;;;;53.30;25.33;;;9.20;99.90;;;;;;5049631;28;20379;-53
2022/10/18 03:36:05;;;;;;;43.28;21.58;;;9.20;99.90;;;;;;5041934;28;20027;-53
2022/10/18 03:38:31;;;;;;;36.67;20.13;;;9.20;99.90;;;;;;5049400;28;20033;-54
2022/10/18 03:40:56;;;;;;;42.15;19.98;;;9.20;99.90;;;;;;5049346;28;20021;-52
2022/10/18 03:43:22;;;;;;;40.33;19.30;;;9.30;99.90;;;;;;5049253;28;20116;-53
2022/10/18 03:45:48;;;;;;;36.50;19.85;;;9.20;99.90;;;;;;5049187;28;20401;-53
2022/10/18 03:48:14;;;;;;;37.03;19.85;;;9.20;99.90;;;;;;5049209;28;20055;-53
2022/10/18 03:50:39;;;;;;;42.88;21.50;;;9.20;99.90;;;;;;5049114;28;20064;-53
2022/10/18 03:53:05;;;;;;;56.78;27.00;;;9.10;99.90;;;;;;5049066;28;20035;-54
2022/10/18 03:55:31;;;;;;;67.03;29.38;;;9.10;99.90;;;;;;5049441;28;20099;-52
2022/10/18 03:57:57;;;;;;;61.15;28.33;;;9.10;99.90;;;;;;5049039;28;20511;-53
2022/10/18 04:00:22;;;;;;;57.30;26.20;;;9.10;99.90;;;;;;5049257;28;20082;-53
2022/10/18 04:02:48;;;;;;;48.60;26.13;;;9.10;99.90;;;;;;5049046;28;20395;-52
2022/10/18 04:05:14;;;;;;;61.33;28.15;;;9.10;99.90;;;;;;5048936;28;20028;-52
2022/10/18 04:07:39;;;;;;;59.88;28.55;;;9.10;99.90;;;;;;5048946;28;20064;-52
2022/10/18 04:10:06;;;;;;;53.72;25.80;;;9.10;99.90;;;;;;5049269;28;20033;-53
2022/10/18 04:12:31;;;;;;;48.88;26.52;;;9.00;99.90;;;;;;5049002;28;20110;-53
2022/10/18 04:14:57;;;;;;;46.55;24.60;;;8.90;99.90;;;;;;5049092;28;20476;-54
2022/10/18 04:17:22;;;;;;;49.42;23.85;;;8.90;99.90;;;;;;5048791;28;20499;-53
2022/10/18 04:19:48;;;;;;;48.38;23.40;;;8.90;99.90;;;;;;5048539;28;20032;-52
2022/10/18 04:22:14;;;;;;;45.85;24.80;;;8.90;99.90;;;;;;5048672;28;20103;-52
2022/10/18 04:24:40;;;;;;;40.42;21.95;;;8.90;99.90;;;;;;5049111;28;20130;-53
2022/10/18 04:27:06;;;;;;;40.05;22.40;;;8.90;99.90;;;;;;5030853;28;20117;-52
2022/10/18 04:29:32;;;;;;;40.97;21.03;;;8.90;99.90;;;;;;5048760;28;20052;-53
2022/10/18 04:31:58;;;;;;;38.85;21.23;;;9.10;99.90;;;;;;5048706;28;20070;-53
2022/10/18 04:34:24;;;;;;;39.58;17.15;;;9.00;99.90;;;;;;5048277;28;20045;-53
2022/10/18 04:36:49;;;;;;;28.52;16.13;;;9.00;99.90;;;;;;5048607;28;20033;-53
2022/10/18 04:39:15;;;;;;;32.30;17.92;;;9.10;99.90;;;;;;5048806;28;20033;-53
2022/10/18 04:41:41;;;;;;;36.30;20.60;;;9.10;99.90;;;;;;5048652;28;20480;-53
2022/10/18 04:44:06;;;;;;;54.33;26.23;;;9.00;99.90;;;;;;5047621;28;20496;-53
2022/10/18 04:46:32;;;;;;;41.72;23.30;;;8.80;99.90;;;;;;5041697;28;20041;-53
2022/10/18 04:49:00;;;;;;;38.80;22.67;;;8.70;99.90;;;;;;5044761;28;20102;-53
2022/10/18 04:51:29;;;;;;;37.90;20.95;;;8.70;99.90;;;;;;5045357;28;20124;-53
2022/10/18 04:53:55;;;;;;;38.35;22.00;;;8.70;99.90;;;;;;5046383;28;20036;-52
2022/10/18 04:56:21;;;;;;;33.13;18.80;;;8.70;99.90;;;;;;5045647;28;20024;-53
2022/10/18 04:58:46;;;;;;;32.50;20.08;;;8.80;99.90;;;;;;5044769;28;20044;-52
2022/10/18 05:01:12;;;;;;;30.67;16.90;;;8.80;99.90;;;;;;5044451;28;20038;-53
2022/10/18 05:03:38;;;;;;;30.83;16.45;;;8.80;99.90;;;;;;5048480;28;20021;-53
2022/10/18 05:06:04;;;;;;;35.50;21.15;;;9.00;99.90;;;;;;5044545;28;20109;-52
2022/10/18 05:08:32;;;;;;;36.50;18.88;;;9.10;99.90;;;;;;5045966;28;20219;-53
2022/10/18 05:10:58;;;;;;;29.17;15.50;;;9.10;99.90;;;;;;5043547;28;20017;-53
2022/10/18 05:13:23;;;;;;;26.52;15.73;;;9.10;99.90;;;;;;5042186;28;20357;-53
2022/10/18 05:15:49;;;;;;;31.77;17.30;;;9.10;99.90;;;;;;5045714;28;20033;-53
2022/10/18 05:18:15;;;;;;;28.50;16.52;;;9.10;99.90;;;;;;5044284;28;20175;-52
2022/10/18 05:20:40;;;;;;;24.92;15.65;;;9.00;99.90;;;;;;5046529;28;20028;-53
2022/10/18 05:23:09;;;;;;;31.70;17.00;;;8.90;99.90;;;;;;5046617;28;20017;-52
2022/10/18 05:25:38;;;;;;;28.38;16.92;;;8.90;99.90;;;;;;5041065;28;20112;-55
2022/10/18 05:28:04;;;;;;;28.38;18.17;;;8.90;99.90;;;;;;5043484;28;20463;-54
2022/10/18 05:30:29;;;;;;;27.38;16.13;;;8.90;99.90;;;;;;5022796;28;20034;-54
2022/10/18 05:32:55;;;;;;;27.20;16.55;;;8.90;99.90;;;;;;5026250;28;20026;-51
2022/10/18 05:35:20;;;;;;;35.72;17.90;;;8.80;99.90;;;;;;5040691;28;20029;-52
2022/10/18 05:37:46;;;;;;;32.90;18.60;;;8.80;99.90;;;;;;5051607;28;20029;-52
2022/10/18 05:40:12;;;;;;;32.05;18.08;;;8.90;99.90;;;;;;5051554;28;20124;-53
2022/10/18 05:42:37;;;;;;;30.95;17.70;;;8.90;99.90;;;;;;5050596;28;20032;-54
2022/10/18 05:45:03;;;;;;;32.83;19.63;;;9.00;99.90;;;;;;5050871;28;20057;-51
2022/10/18 05:47:29;;;;;;;30.65;17.65;;;8.90;99.90;;;;;;5050354;28;20044;-52
2022/10/18 05:49:54;;;;;;;39.88;19.23;;;9.00;99.90;;;;;;5049523;28;20575;-51
2022/10/18 05:52:20;;;;;;;31.38;19.33;;;9.00;99.90;;;;;;5049469;28;20057;-54
2022/10/18 05:54:45;;;;;;;41.13;23.27;;;9.00;99.90;;;;;;5049265;28;20037;-53
2022/10/18 05:57:11;;;;;;;34.88;20.83;;;9.00;99.90;;;;;;5049328;28;20046;-52
2022/10/18 05:59:37;;;;;;;28.27;18.23;;;9.10;99.90;;;;;;5049274;28;20068;-54
2022/10/18 06:02:02;;;;;;;27.55;16.52;;;9.30;99.90;;;;;;5050021;28;20036;-52
2022/10/18 06:04:28;;;;;;;34.65;19.13;;;9.50;99.90;;;;;;5046231;28;20067;-53
2022/10/18 06:06:55;;;;;;;34.25;20.08;;;9.60;99.90;;;;;;5045013;28;20130;-53
2022/10/18 06:09:20;;;;;;;37.42;22.50;;;9.60;99.90;;;;;;5033569;28;20103;-52
2022/10/18 06:11:46;;;;;;;33.25;21.13;;;9.60;99.90;;;;;;5048300;28;20480;-53
2022/10/18 06:14:12;;;;;;;34.28;20.83;;;9.60;99.90;;;;;;5045587;28;20036;-54
2022/10/18 06:16:37;;;;;;;39.67;19.70;;;9.60;99.90;;;;;;5047508;28;20420;-51
2022/10/18 06:19:03;;;;;;;32.08;18.00;;;9.60;99.90;;;;;;5042759;28;20376;-53
2022/10/18 06:21:29;;;;;;;29.20;16.27;;;9.70;99.90;;;;;;5044528;28;20548;-52
2022/10/18 06:23:57;;;;;;;30.60;18.50;;;9.90;99.90;;;;;;5045268;28;20781;-52
2022/10/18 06:26:23;;;;;;;29.77;19.20;;;10.00;99.90;;;;;;5050809;28;20257;-52
2022/10/18 06:28:49;;;;;;;33.30;20.83;;;10.00;99.90;;;;;;5050753;28;20040;-53
2022/10/18 06:31:15;;;;;;;45.95;27.10;;;10.00;99.90;;;;;;5050225;28;20074;-52
2022/10/18 06:33:41;;;;;;;49.90;25.48;;;10.00;99.90;;;;;;5047836;28;20056;-52
2022/10/18 06:36:10;;;;;;;47.65;26.92;;;10.10;99.90;;;;;;5021972;28;20507;-51
2022/10/18 06:38:36;;;;;;;48.80;26.30;;;10.20;99.90;;;;;;5050590;28;20129;-52
2022/10/18 06:41:03;;;;;;;42.25;25.15;;;10.30;99.90;;;;;;5050639;28;20081;-53
2022/10/18 06:43:28;;;;;;;44.88;25.77;;;10.50;99.90;;;;;;5049847;28;20021;-53
2022/10/18 06:45:54;;;;;;;44.33;26.35;;;10.60;99.90;;;;;;5050128;28;20523;-52
2022/10/18 06:48:21;;;;;;;49.10;27.48;;;10.80;99.90;;;;;;5050217;28;20036;-52
2022/10/18 06:50:51;;;;;;;48.77;25.83;;;10.90;99.90;;;;;;5050121;28;20036;-52
2022/10/18 06:53:17;;;;;;;50.83;26.63;;;11.10;99.90;;;;;;5049960;28;20043;-52
2022/10/18 06:55:43;;;;;;;40.33;20.05;;;11.20;99.90;;;;;;5050065;28;20025;-52
2022/10/18 06:58:08;;;;;;;39.22;20.60;;;11.40;99.90;;;;;;5050406;28;20036;-52
2022/10/18 07:00:35;;;;;;;35.13;21.60;;;11.60;99.90;;;;;;5050221;28;20032;-52
2022/10/18 07:03:00;;;;;;;40.72;22.63;;;11.80;99.90;;;;;;5049626;28;20021;-52
2022/10/18 07:05:26;;;;;;;33.65;20.50;;;11.90;99.90;;;;;;5042387;28;20034;-52
2022/10/18 07:07:52;;;;;;;35.63;20.40;;;12.10;99.90;;;;;;5046838;28;20025;-51
2022/10/18 07:10:18;;;;;;;36.20;21.13;;;12.20;99.90;;;;;;5042161;28;20100;-53
2022/10/18 07:12:43;;;;;;;36.50;18.48;;;12.30;99.90;;;;;;5045645;28;20113;-52
2022/10/18 07:15:09;;;;;;;26.38;15.65;;;12.50;99.90;;;;;;5044104;28;20029;-53
2022/10/18 07:17:35;;;;;;;27.95;13.35;;;12.90;99.90;;;;;;5044772;28;20053;-52
2022/10/18 07:20:03;;;;;;;25.35;11.70;;;13.20;99.90;;;;;;5047307;28;20060;-52
2022/10/18 07:22:29;;;;;;;21.20;10.30;;;13.60;99.90;;;;;;5043817;28;20025;-53
2022/10/18 07:24:54;;;;;;;19.85;9.73;;;13.90;99.90;;;;;;5044522;28;20033;-51
2022/10/18 07:27:20;;;;;;;14.20;8.38;;;14.20;99.90;;;;;;5044028;28;20017;-52
2022/10/18 07:29:47;;;;;;;14.50;7.03;;;14.40;99.90;;;;;;5049635;28;20029;-51
2022/10/18 07:32:13;;;;;;;13.02;7.03;;;14.60;99.90;;;;;;5049571;28;20786;-51
2022/10/18 07:34:38;;;;;;;14.07;6.82;;;14.80;99.90;;;;;;5049302;28;20045;-51
2022/10/18 07:37:04;;;;;;;12.82;6.90;;;14.90;99.90;;;;;;5049478;28;20029;-52
2022/10/18 07:39:30;;;;;;;12.82;6.22;;;15.20;99.90;;;;;;5049486;28;20430;-52
2022/10/18 07:41:56;;;;;;;15.63;7.35;;;15.20;99.90;;;;;;5049540;28;20036;-51
2022/10/18 07:44:22;;;;;;;13.90;7.00;;;15.50;99.90;;;;;;5048903;28;20075;-52
2022/10/18 07:46:47;;;;;;;15.90;7.35;;;15.50;99.90;;;;;;5049252;28;20426;-53
2022/10/18 07:49:13;;;;;;;13.38;7.30;;;15.50;99.90;;;;;;5048478;28;20028;-53
2022/10/18 07:51:38;;;;;;;14.80;7.05;;;15.70;99.90;;;;;;5049314;28;20025;-52
2022/10/18 07:54:04;;;;;;;14.13;6.47;;;15.80;99.90;;;;;;5049226;28;20079;-52
2022/10/18 07:56:30;;;;;;;16.92;6.20;;;16.10;99.90;;;;;;5049294;28;20577;-52
2022/10/18 07:58:56;;;;;;;15.18;6.53;;;16.60;99.90;;;;;;5048835;28;20082;-53
2022/10/18 08:01:23;;;;;;;13.38;6.65;;;16.30;99.90;;;;;;5048296;28;20025;-53
2022/10/18 08:03:49;;;;;;;14.75;6.97;;;16.40;99.90;;;;;;5042684;28;20060;-54
2022/10/18 08:06:17;;;;;;;13.57;6.05;;;16.40;99.90;;;;;;5035652;28;20030;-52
2022/10/18 08:08:44;;;;;;;14.38;6.22;;;16.40;99.90;;;;;;5045409;28;20041;-53
2022/10/18 08:11:15;;;;;;;12.23;6.18;;;16.50;99.90;;;;;;5049306;28;20028;-53
2022/10/18 08:13:42;;;;;;;7.78;5.18;;;16.60;99.90;;;;;;5049040;28;20097;-52
2022/10/18 08:16:10;;;;;;;18.23;6.28;;;16.90;99.90;;;;;;5048971;28;20033;-54
2022/10/18 08:18:36;;;;;;;13.32;6.20;;;17.00;99.90;;;;;;5048956;28;20032;-53
2022/10/18 08:21:04;;;;;;;11.87;5.53;;;17.00;99.90;;;;;;5048454;28;20128;-54
2022/10/18 08:23:30;;;;;;;12.07;5.25;;;17.20;99.90;;;;;;5048072;28;20647;-53
2022/10/18 08:26:01;;;;;;;10.93;5.43;;;17.10;98.10;;;;;;5048925;28;20484;-52
2022/10/18 08:28:26;;;;;;;11.93;5.55;;;17.40;98.90;;;;;;5031349;28;20461;-53
2022/10/18 08:30:52;;;;;;;13.70;6.10;;;17.20;98.20;;;;;;5048924;28;20036;-52
2022/10/18 08:33:18;;;;;;;10.02;5.20;;;17.40;98.60;;;;;;5048769;28;20032;-52
2022/10/18 08:35:57;;;;;;;19.05;5.43;;;18.10;96.50;;;;;;5048911;28;20435;-53
2022/10/18 08:38:22;;;;;;;13.05;5.28;;;17.80;95.70;;;;;;5048704;28;20743;-54
2022/10/18 08:40:48;;;;;;;15.48;4.93;;;17.70;94.90;;;;;;5048884;28;20086;-51
2022/10/18 08:43:23;;;;;;;8.45;4.50;;;18.00;93.70;;;;;;5048701;28;20385;-52
2022/10/18 08:45:52;;;;;;;11.13;5.65;;;17.90;93.50;;;;;;5048588;28;20049;-54
2022/10/18 08:48:42;;;;;;;11.32;5.50;;;18.00;93.60;;;;;;5049012;28;20458;-53
2022/10/18 08:51:32;;;;;;;11.63;5.03;;;17.80;93.80;;;;;;5048433;28;20060;-52
2022/10/18 08:54:12;;;;;;;9.90;5.57;;;18.10;93.30;;;;;;5048637;28;20044;-51
2022/10/18 08:56:39;;;;;;;13.27;4.90;;;18.10;93.70;;;;;;5048567;28;20036;-53
2022/10/18 08:59:09;;;;;;;;;;;18.30;91.60;;;;;;5048934;28;20029;-52
2022/10/18 09:01:35;;;;;;;16.48;5.25;;;18.80;92.00;;;;;;5048663;28;19962;-52
2022/10/18 09:04:12;;;;;;;11.57;4.97;;;18.50;91.10;;;;;;5048673;28;20029;-52
2022/10/18 09:06:49;;;;;;;11.35;4.82;;;18.30;92.10;;;;;;5048740;28;20043;-52
2022/10/18 09:09:39;;;;;;;20.37;6.17;;;18.20;90.60;;;;;;5048572;28;20033;-52
2022/10/18 09:12:42;;;;;;;15.90;5.30;;;18.90;91.80;;;;;;5048338;28;20459;-51
2022/10/18 09:15:16;;;;;;;10.35;5.40;;;18.90;90.90;;;;;;5048569;28;20029;-52
2022/10/18 09:18:14;;;;;;;10.82;5.38;;;18.90;90.20;;;;;;5048360;28;20021;-53
2022/10/18 09:20:48;;;;;;;10.90;5.00;;;19.00;90.30;;;;;;5045919;28;20037;-52
2022/10/18 09:23:39;;;;;;;10.88;4.90;;;18.60;88.40;;;;;;5048228;28;20021;-52
2022/10/18 09:26:23;;;;;;;7.97;4.72;;;18.90;90.30;;;;;;5048404;28;20037;-51
2022/10/18 09:29:11;;;;;;;7.25;4.50;;;19.20;88.80;;;;;;5048356;28;20013;-54
2022/10/18 09:31:45;;;;;;;20.90;4.70;;;19.00;88.50;;;;;;5021159;28;20025;-54
2022/10/18 09:34:33;;;;;;;10.40;4.97;;;19.50;89.20;;;;;;5028609;28;20302;-53
2022/10/18 09:36:59;;;;;;;13.27;5.13;;;20.00;82.10;;;;;;5040385;28;20025;-52
2022/10/18 09:39:30;;;;;;;9.77;4.40;;;19.70;82.80;;;;;;5048144;28;20052;-53
2022/10/18 09:42:02;;;;;;;12.82;4.68;;;19.40;82.00;;;;;;5040389;28;20754;-54
2022/10/18 09:44:35;;;;;;;13.95;5.57;;;19.80;81.80;;;;;;5042960;28;20052;-51
2022/10/18 09:47:23;;;;;;;7.80;4.40;;;19.40;81.30;;;;;;5041572;28;20477;-53
2022/10/18 09:50:00;;;;;;;;;;;20.20;82.00;;;;;;5047815;28;20045;-54
2022/10/18 09:52:35;;;;;;;9.15;4.90;;;19.90;78.10;;;;;;5043640;28;19913;-52
2022/10/18 09:55:08;;;;;;;11.80;3.95;;;19.90;80.00;;;;;;5031742;28;20077;-53
2022/10/18 09:57:49;;;;;;;9.10;4.20;;;20.00;78.30;;;;;;5031507;28;20028;-53
2022/10/18 10:00:21;;;;;;;9.98;4.72;;;19.90;76.70;;;;;;5035694;28;20025;-53
2022/10/18 10:02:47;;;;;;;14.32;4.97;;;19.70;78.10;;;;;;5047226;28;20372;-53
2022/10/18 10:05:13;;;;;;;12.13;4.97;;;19.60;75.90;;;;;;5047297;28;20448;-52
2022/10/18 10:07:46;;;;;;;8.67;3.97;;;19.60;76.70;;;;;;5045185;28;20029;-52
2022/10/18 10:10:27;;;;;;;13.38;4.75;;;19.60;77.10;;;;;;5042138;28;20272;-53
2022/10/18 10:13:16;;;;;;;9.02;4.20;;;19.90;78.30;;;;;;5045020;28;20025;-52
2022/10/18 10:15:52;;;;;;;9.05;4.60;;;19.90;76.50;;;;;;5038074;28;20033;-52
2022/10/18 10:18:17;;;;;;;15.35;4.95;;;20.20;76.90;;;;;;5051188;28;20024;-53
2022/10/18 10:20:50;;;;;;;10.13;4.57;;;20.30;76.10;;;;;;5051096;28;20029;-52
2022/10/18 10:23:36;;;;;;;8.07;3.92;;;20.40;76.10;;;;;;5051154;28;20017;-52
2022/10/18 10:26:20;;;;;;;13.48;4.68;;;20.40;76.30;;;;;;5051204;28;20047;-53
2022/10/18 10:28:47;;;;;;;10.75;4.88;;;20.50;75.50;;;;;;5050924;28;20033;-52
2022/10/18 10:31:29;;;;;;;;;;;20.90;75.30;;;;;;5051664;28;20021;-52
2022/10/18 10:34:00;;;;;;;8.52;3.95;;;20.70;73.70;;;;;;5050744;28;19963;-52
2022/10/18 10:36:27;;;;;;;10.35;4.05;;;21.00;72.40;;;;;;5050918;28;20036;-52
2022/10/18 10:39:05;;;;;;;9.57;4.03;;;21.20;71.50;;;;;;5050581;28;20021;-52
2022/10/18 10:41:31;;;;;;;9.38;4.20;;;21.00;74.00;;;;;;5050593;28;20025;-52
2022/10/18 10:43:57;;;;;;;12.00;4.15;;;21.10;73.50;;;;;;5050691;28;20052;-52
2022/10/18 10:46:25;;;;;;;8.63;3.63;;;21.20;71.20;;;;;;5047016;28;20084;-52
2022/10/18 10:48:58;;;;;;;8.70;4.28;;;21.10;70.10;;;;;;5049492;28;20025;-52
2022/10/18 10:51:38;;;;;;;9.15;4.00;;;20.80;70.70;;;;;;5042629;28;20037;-52
2022/10/18 10:54:16;;;;;;;7.93;3.75;;;20.90;70.90;;;;;;5050137;28;20033;-51
2022/10/18 10:56:57;;;;;;;;;;;20.80;71.50;;;;;;5043732;28;20021;-52
2022/10/18 10:59:26;;;;;;;9.82;3.90;;;21.10;70.20;;;;;;5050176;28;19905;-51
2022/10/18 11:02:30;;;;;;;9.57;3.70;;;21.30;68.80;;;;;;5049982;28;20025;-52
2022/10/18 11:05:14;;;;;;;7.70;4.18;;;20.70;68.70;;;;;;4987940;28;20037;-51
2022/10/18 11:07:44;;;;;;;10.60;3.92;;;21.40;69.30;;;;;;4987443;28;20070;-51
2022/10/18 11:10:09;;;;;;;10.90;5.00;;;20.80;69.90;;;;;;5025797;28;20025;-52
2022/10/18 11:12:44;;;;;;;10.48;4.03;;;21.00;70.50;;;;;;5048514;28;20499;-52
2022/10/18 11:15:12;;;;;;;9.65;4.57;;;21.10;71.00;;;;;;5044985;28;20044;-53
2022/10/18 11:17:38;;;;;;;15.68;4.10;;;21.10;69.90;;;;;;5047210;28;20025;-51
2022/10/18 11:20:08;;;;;;;12.07;3.92;;;21.10;70.40;;;;;;5048327;28;20985;-51
2022/10/18 11:23:13;;;;;;;15.00;4.03;;;20.80;69.80;;;;;;5045894;28;20333;-51
2022/10/18 11:25:56;;;;;;;6.88;4.15;;;20.80;69.80;;;;;;5041908;28;20064;-51
2022/10/18 11:28:44;;;;;;;11.60;4.30;;;20.70;70.40;;;;;;5046350;28;20094;-53
2022/10/18 11:31:31;;;;;;;11.30;3.83;;;21.00;72.00;;;;;;5039825;28;20021;-54
2022/10/18 11:34:34;;;;;;;17.80;5.05;;;20.90;69.90;;;;;;5024319;28;20400;-54
2022/10/18 11:37:05;;;;;;;15.57;4.50;;;20.70;70.60;;;;;;5029067;28;20389;-51
2022/10/18 11:39:36;;;;;;;31.63;5.30;;;21.00;69.90;;;;;;5027755;28;20087;-54
2022/10/18 11:42:17;;;;;;;19.38;5.60;;;20.80;69.70;;;;;;5028296;28;20037;-52
2022/10/18 11:45:12;;;;;;;13.73;4.57;;;20.90;70.50;;;;;;5027412;28;20045;-52
2022/10/18 11:47:55;;;;;;;27.52;5.70;;;20.80;69.80;;;;;;5021230;28;20405;-52
2022/10/18 11:50:29;;;;;;;9.70;4.85;;;20.70;70.50;;;;;;5027986;28;20029;-54
2022/10/18 11:52:57;;;;;;;13.85;4.72;;;20.90;70.50;;;;;;5026864;28;20100;-51
2022/10/18 11:55:45;;;;;;;8.85;4.53;;;20.80;70.40;;;;;;5026090;28;20048;-51
2022/10/18 11:58:10;;;;;;;11.95;5.22;;;21.10;71.10;;;;;;5026020;28;20736;-52
2022/10/18 12:00:47;;;;;;;10.77;4.07;;;21.40;70.40;;;;;;5026330;28;20100;-53
2022/10/18 12:03:55;;;;;;;7.30;4.25;;;21.40;70.80;;;;;;5025865;28;20477;-52
2022/10/18 12:06:25;;;;;;;9.30;4.43;;;21.20;71.30;;;;;;5027485;28;20087;-54
2022/10/18 12:08:58;;;;;;;15.80;4.68;;;21.30;69.40;;;;;;5028562;28;20481;-52
2022/10/18 12:11:45;;;;;;;15.35;5.25;;;22.00;68.70;;;;;;5029161;28;20021;-53
2022/10/18 12:14:24;;;;;;;9.98;5.25;;;22.00;67.10;;;;;;5028966;28;20037;-52
2022/10/18 12:16:51;;;;;;;7.25;4.30;;;23.20;64.80;;;;;;5045217;28;20033;-53
2022/10/18 12:19:21;;;;;;;8.57;4.82;;;23.60;63.80;;;;;;5047309;28;20029;-53
2022/10/18 12:21:46;;;;;;;13.40;4.47;;;22.90;65.80;;;;;;5047498;28;20035;-54
2022/10/18 12:24:21;;;;;;;11.93;4.50;;;22.40;67.50;;;;;;5043203;28;20428;-54
2022/10/18 12:26:50;;;;;;;12.18;5.20;;;21.90;68.80;;;;;;5035559;28;20033;-52
2022/10/18 12:29:28;;;;;;;8.70;4.28;;;21.80;69.30;;;;;;5046074;28;20029;-53
2022/10/18 12:32:00;;;;;;;11.13;4.40;;;21.70;70.00;;;;;;5045515;28;20107;-53
2022/10/18 12:34:40;;;;;;;14.02;4.88;;;21.50;70.30;;;;;;5044814;28;20045;-54
2022/10/18 13:04:31;;;;;;;9.90;5.63;;;21.30;72.10;;;;;;2063278;22;20053;-52
2022/10/18 13:06:57;;;;;;;16.48;5.50;;;21.30;72.20;;;;;;5027136;28;20704;-52
2022/10/18 13:12:09;;;;;;;9.63;4.88;;;21.30;73.50;;;;;;5611788;22;20057;-52
2022/10/18 13:32:39;;;;;;;13.93;6.00;;;21.40;76.40;;;;;;5068293;28;20055;-89
2022/10/18 13:35:45;;;;;;;10.48;6.05;;;21.20;75.90;;;;;;5080231;28;20651;-94
2022/10/18 13:38:40;;;;;;;14.30;6.45;;;21.40;77.00;;;;;;5079101;28;20088;-92
2022/10/18 13:41:23;;;;;;;12.75;6.57;;;21.30;76.50;;;;;;5015056;28;20076;-93
2022/10/18 13:44:19;;;;;;;11.00;6.00;;;21.30;76.30;;;;;;5060124;28;20017;-94